sensor_id;sensor_type;location;lat;lon;timestamp;P1;durP1;ratioP1;P2;durP2;ratioP2
10283;SDS011;5187;52.378;9.018;2022-11-15T00:01:14;0.00;;;0.00;;
10283;SDS011;5187;52.378;9.018;2022-11-15T00:03:44;0.00;;;0.00;;
10283;SDS011;5187;52.378;9.018;2022-11-15T00:06:12;0.00;;;0.00;;
10283;SDS011;5187;52.378;9.018;2022-11-15T00:08:41;0.00;;;0.00;;
10283;SDS011;5187;52.378;9.018;2022-11-15T00:11:11;0.00;;;0.00;;
10283;SDS011;5187;52.378;9.018;2022-11-15T00:13:40;0.00;;;0.00;;
10283;SDS011;5187;52.378;9.018;2022-11-15T00:16:09;0.00;;;0.00;;
10283;SDS011;5187;52.378;9.018;2022-11-15T00:18:38;0.00;;;0.00;;
10283;SDS011;5187;52.378;9.018;2022-11-15T00:21:13;0.00;;;0.00;;
10283;SDS011;5187;52.378;9.018;2022-11-15T00:23:42;0.00;;;0.00;;
10283;SDS011;5187;52.378;9.018;2022-11-15T00:26:12;0.00;;;0.00;;
10283;SDS011;5187;52.378;9.018;2022-11-15T00:28:41;0.00;;;0.00;;
10283;SDS011;5187;52.378;9.018;2022-11-15T00:31:11;0.00;;;0.00;;
10283;SDS011;5187;52.378;9.018;2022-11-15T00:33:42;0.00;;;0.00;;
10283;SDS011;5187;52.378;9.018;2022-11-15T00:36:11;0.00;;;0.00;;
10283;SDS011;5187;52.378;9.018;2022-11-15T00:38:40;0.00;;;0.00;;
10283;SDS011;5187;52.378;9.018;2022-11-15T00:41:08;0.00;;;0.00;;
10283;SDS011;5187;52.378;9.018;2022-11-15T00:43:38;0.00;;;0.00;;
10283;SDS011;5187;52.378;9.018;2022-11-15T00:46:09;0.00;;;0.00;;
10283;SDS011;5187;52.378;9.018;2022-11-15T00:48:38;0.00;;;0.00;;
10283;SDS011;5187;52.378;9.018;2022-11-15T00:51:06;0.00;;;0.00;;
10283;SDS011;5187;52.378;9.018;2022-11-15T00:53:35;0.00;;;0.00;;
10283;SDS011;5187;52.378;9.018;2022-11-15T00:56:03;0.00;;;0.00;;
10283;SDS011;5187;52.378;9.018;2022-11-15T00:58:32;0.00;;;0.00;;
10283;SDS011;5187;52.378;9.018;2022-11-15T01:01:08;0.00;;;0.00;;
10283;SDS011;5187;52.378;9.018;2022-11-15T01:03:37;0.00;;;0.00;;
10283;SDS011;5187;52.378;9.018;2022-11-15T01:06:07;0.00;;;0.00;;
10283;SDS011;5187;52.378;9.018;2022-11-15T01:08:35;0.00;;;0.00;;
10283;SDS011;5187;52.378;9.018;2022-11-15T01:11:05;0.00;;;0.00;;
10283;SDS011;5187;52.378;9.018;2022-11-15T01:13:34;0.00;;;0.00;;
10283;SDS011;5187;52.378;9.018;2022-11-15T01:16:09;0.00;;;0.00;;
10283;SDS011;5187;52.378;9.018;2022-11-15T01:18:37;0.00;;;0.00;;
10283;SDS011;5187;52.378;9.018;2022-11-15T01:21:07;0.00;;;0.00;;
10283;SDS011;5187;52.378;9.018;2022-11-15T01:23:35;0.00;;;0.00;;
10283;SDS011;5187;52.378;9.018;2022-11-15T01:26:06;0.00;;;0.00;;
10283;SDS011;5187;52.378;9.018;2022-11-15T01:28:35;0.00;;;0.00;;
10283;SDS011;5187;52.378;9.018;2022-11-15T01:31:05;0.00;;;0.00;;
10283;SDS011;5187;52.378;9.018;2022-11-15T01:33:35;0.00;;;0.00;;
10283;SDS011;5187;52.378;9.018;2022-11-15T01:36:04;0.00;;;0.00;;
10283;SDS011;5187;52.378;9.018;2022-11-15T01:38:33;0.00;;;0.00;;
10283;SDS011;5187;52.378;9.018;2022-11-15T01:41:01;0.00;;;0.00;;
10283;SDS011;5187;52.378;9.018;2022-11-15T01:43:31;0.00;;;0.00;;
10283;SDS011;5187;52.378;9.018;2022-11-15T01:46:00;0.00;;;0.00;;
10283;SDS011;5187;52.378;9.018;2022-11-15T01:48:31;0.00;;;0.00;;
10283;SDS011;5187;52.378;9.018;2022-11-15T01:51:02;0.00;;;0.00;;
10283;SDS011;5187;52.378;9.018;2022-11-15T01:53:32;0.00;;;0.00;;
10283;SDS011;5187;52.378;9.018;2022-11-15T01:56:02;0.00;;;0.00;;
10283;SDS011;5187;52.378;9.018;2022-11-15T01:58:32;0.00;;;0.00;;
10283;SDS011;5187;52.378;9.018;2022-11-15T02:01:00;0.00;;;0.00;;
10283;SDS011;5187;52.378;9.018;2022-11-15T02:03:31;0.00;;;0.00;;
10283;SDS011;5187;52.378;9.018;2022-11-15T02:06:04;0.00;;;0.00;;
10283;SDS011;5187;52.378;9.018;2022-11-15T02:08:33;0.00;;;0.00;;
10283;SDS011;5187;52.378;9.018;2022-11-15T02:11:04;0.00;;;0.00;;
10283;SDS011;5187;52.378;9.018;2022-11-15T02:13:32;0.00;;;0.00;;
10283;SDS011;5187;52.378;9.018;2022-11-15T02:16:03;0.00;;;0.00;;
10283;SDS011;5187;52.378;9.018;2022-11-15T02:18:37;0.00;;;0.00;;
10283;SDS011;5187;52.378;9.018;2022-11-15T02:21:11;0.00;;;0.00;;
10283;SDS011;5187;52.378;9.018;2022-11-15T02:26:41;0.00;;;0.00;;
10283;SDS011;5187;52.378;9.018;2022-11-15T02:29:15;0.00;;;0.00;;
10283;SDS011;5187;52.378;9.018;2022-11-15T02:31:48;0.00;;;0.00;;
10283;SDS011;5187;52.378;9.018;2022-11-15T02:34:21;0.00;;;0.00;;
10283;SDS011;5187;52.378;9.018;2022-11-15T02:36:54;0.00;;;0.00;;
10283;SDS011;5187;52.378;9.018;2022-11-15T02:39:28;0.00;;;0.00;;
10283;SDS011;5187;52.378;9.018;2022-11-15T02:42:00;0.00;;;0.00;;
10283;SDS011;5187;52.378;9.018;2022-11-15T02:44:30;0.00;;;0.00;;
10283;SDS011;5187;52.378;9.018;2022-11-15T02:47:03;0.00;;;0.00;;
10283;SDS011;5187;52.378;9.018;2022-11-15T02:49:42;0.00;;;0.00;;
10283;SDS011;5187;52.378;9.018;2022-11-15T02:52:14;0.00;;;0.00;;
10283;SDS011;5187;52.378;9.018;2022-11-15T02:54:43;0.00;;;0.00;;
10283;SDS011;5187;52.378;9.018;2022-11-15T02:57:22;0.00;;;0.00;;
10283;SDS011;5187;52.378;9.018;2022-11-15T03:00:07;0.00;;;0.00;;
10283;SDS011;5187;52.378;9.018;2022-11-15T03:02:40;0.00;;;0.00;;
10283;SDS011;5187;52.378;9.018;2022-11-15T03:05:13;0.00;;;0.00;;
10283;SDS011;5187;52.378;9.018;2022-11-15T03:07:48;0.00;;;0.00;;
10283;SDS011;5187;52.378;9.018;2022-11-15T03:10:25;0.00;;;0.00;;
10283;SDS011;5187;52.378;9.018;2022-11-15T03:12:55;0.00;;;0.00;;
10283;SDS011;5187;52.378;9.018;2022-11-15T03:15:26;0.00;;;0.00;;
10283;SDS011;5187;52.378;9.018;2022-11-15T03:17:59;0.00;;;0.00;;
10283;SDS011;5187;52.378;9.018;2022-11-15T03:20:29;0.00;;;0.00;;
10283;SDS011;5187;52.378;9.018;2022-11-15T03:23:00;0.00;;;0.00;;
10283;SDS011;5187;52.378;9.018;2022-11-15T03:25:29;0.00;;;0.00;;
10283;SDS011;5187;52.378;9.018;2022-11-15T03:28:00;0.00;;;0.00;;
10283;SDS011;5187;52.378;9.018;2022-11-15T03:30:29;0.00;;;0.00;;
10283;SDS011;5187;52.378;9.018;2022-11-15T03:33:00;0.00;;;0.00;;
10283;SDS011;5187;52.378;9.018;2022-11-15T03:35:30;0.00;;;0.00;;
10283;SDS011;5187;52.378;9.018;2022-11-15T03:38:03;0.00;;;0.00;;
10283;SDS011;5187;52.378;9.018;2022-11-15T03:40:34;0.00;;;0.00;;
10283;SDS011;5187;52.378;9.018;2022-11-15T03:43:06;0.00;;;0.00;;
10283;SDS011;5187;52.378;9.018;2022-11-15T03:45:39;0.00;;;0.00;;
10283;SDS011;5187;52.378;9.018;2022-11-15T03:48:10;0.00;;;0.00;;
10283;SDS011;5187;52.378;9.018;2022-11-15T03:50:41;0.00;;;0.00;;
10283;SDS011;5187;52.378;9.018;2022-11-15T03:53:09;0.00;;;0.00;;
10283;SDS011;5187;52.378;9.018;2022-11-15T03:55:38;0.00;;;0.00;;
10283;SDS011;5187;52.378;9.018;2022-11-15T03:58:07;0.00;;;0.00;;
10283;SDS011;5187;52.378;9.018;2022-11-15T04:00:35;0.00;;;0.00;;
10283;SDS011;5187;52.378;9.018;2022-11-15T04:03:04;0.00;;;0.00;;
10283;SDS011;5187;52.378;9.018;2022-11-15T04:05:35;0.00;;;0.00;;
10283;SDS011;5187;52.378;9.018;2022-11-15T04:08:03;0.00;;;0.00;;
10283;SDS011;5187;52.378;9.018;2022-11-15T04:10:32;0.00;;;0.00;;
10283;SDS011;5187;52.378;9.018;2022-11-15T04:13:01;0.00;;;0.00;;
10283;SDS011;5187;52.378;9.018;2022-11-15T04:15:30;0.00;;;0.00;;
10283;SDS011;5187;52.378;9.018;2022-11-15T04:17:58;0.00;;;0.00;;
10283;SDS011;5187;52.378;9.018;2022-11-15T04:20:27;0.00;;;0.00;;
10283;SDS011;5187;52.378;9.018;2022-11-15T04:23:15;0.00;;;0.00;;
10283;SDS011;5187;52.378;9.018;2022-11-15T04:26:02;0.00;;;0.00;;
10283;SDS011;5187;52.378;9.018;2022-11-15T04:28:31;0.00;;;0.00;;
10283;SDS011;5187;52.378;9.018;2022-11-15T04:30:59;0.00;;;0.00;;
10283;SDS011;5187;52.378;9.018;2022-11-15T04:33:28;0.00;;;0.00;;
10283;SDS011;5187;52.378;9.018;2022-11-15T04:35:57;0.00;;;0.00;;
10283;SDS011;5187;52.378;9.018;2022-11-15T04:38:44;0.00;;;0.00;;
10283;SDS011;5187;52.378;9.018;2022-11-15T04:41:12;0.00;;;0.00;;
10283;SDS011;5187;52.378;9.018;2022-11-15T04:43:41;0.00;;;0.00;;
10283;SDS011;5187;52.378;9.018;2022-11-15T04:46:09;0.00;;;0.00;;
10283;SDS011;5187;52.378;9.018;2022-11-15T04:48:38;0.00;;;0.00;;
10283;SDS011;5187;52.378;9.018;2022-11-15T04:51:06;0.00;;;0.00;;
10283;SDS011;5187;52.378;9.018;2022-11-15T04:53:35;0.00;;;0.00;;
10283;SDS011;5187;52.378;9.018;2022-11-15T04:56:05;0.00;;;0.00;;
10283;SDS011;5187;52.378;9.018;2022-11-15T04:58:34;0.00;;;0.00;;
10283;SDS011;5187;52.378;9.018;2022-11-15T05:01:06;0.00;;;0.00;;
10283;SDS011;5187;52.378;9.018;2022-11-15T05:03:35;0.00;;;0.00;;
10283;SDS011;5187;52.378;9.018;2022-11-15T05:06:21;0.00;;;0.00;;
10283;SDS011;5187;52.378;9.018;2022-11-15T05:08:49;0.00;;;0.00;;
10283;SDS011;5187;52.378;9.018;2022-11-15T05:11:19;0.00;;;0.00;;
10283;SDS011;5187;52.378;9.018;2022-11-15T05:13:48;0.00;;;0.00;;
10283;SDS011;5187;52.378;9.018;2022-11-15T05:16:16;0.00;;;0.00;;
10283;SDS011;5187;52.378;9.018;2022-11-15T05:18:45;0.00;;;0.00;;
10283;SDS011;5187;52.378;9.018;2022-11-15T05:21:14;0.00;;;0.00;;
10283;SDS011;5187;52.378;9.018;2022-11-15T05:23:42;0.00;;;0.00;;
10283;SDS011;5187;52.378;9.018;2022-11-15T05:26:11;0.00;;;0.00;;
10283;SDS011;5187;52.378;9.018;2022-11-15T05:28:41;0.00;;;0.00;;
10283;SDS011;5187;52.378;9.018;2022-11-15T05:31:11;0.00;;;0.00;;
10283;SDS011;5187;52.378;9.018;2022-11-15T05:33:40;0.00;;;0.00;;
10283;SDS011;5187;52.378;9.018;2022-11-15T05:36:09;0.00;;;0.00;;
10283;SDS011;5187;52.378;9.018;2022-11-15T05:38:40;0.00;;;0.00;;
10283;SDS011;5187;52.378;9.018;2022-11-15T05:41:09;0.00;;;0.00;;
10283;SDS011;5187;52.378;9.018;2022-11-15T05:43:37;0.00;;;0.00;;
10283;SDS011;5187;52.378;9.018;2022-11-15T05:46:08;0.00;;;0.00;;
10283;SDS011;5187;52.378;9.018;2022-11-15T05:48:37;0.00;;;0.00;;
10283;SDS011;5187;52.378;9.018;2022-11-15T05:51:06;0.00;;;0.00;;
10283;SDS011;5187;52.378;9.018;2022-11-15T05:53:35;0.00;;;0.00;;
10283;SDS011;5187;52.378;9.018;2022-11-15T05:56:04;0.00;;;0.00;;
10283;SDS011;5187;52.378;9.018;2022-11-15T05:58:34;0.00;;;0.00;;
10283;SDS011;5187;52.378;9.018;2022-11-15T06:01:02;0.00;;;0.00;;
10283;SDS011;5187;52.378;9.018;2022-11-15T06:03:32;0.00;;;0.00;;
10283;SDS011;5187;52.378;9.018;2022-11-15T06:06:00;0.00;;;0.00;;
10283;SDS011;5187;52.378;9.018;2022-11-15T06:08:29;10.40;;;7.93;;
10283;SDS011;5187;52.378;9.018;2022-11-15T06:11:02;9.87;;;7.53;;
10283;SDS011;5187;52.378;9.018;2022-11-15T06:13:31;10.13;;;7.73;;
10283;SDS011;5187;52.378;9.018;2022-11-15T06:16:00;10.47;;;7.80;;
10283;SDS011;5187;52.378;9.018;2022-11-15T06:18:31;10.93;;;8.43;;
10283;SDS011;5187;52.378;9.018;2022-11-15T06:21:01;8.27;;;7.47;;
10283;SDS011;5187;52.378;9.018;2022-11-15T06:23:31;9.13;;;7.93;;
10283;SDS011;5187;52.378;9.018;2022-11-15T06:26:00;11.67;;;9.40;;
10283;SDS011;5187;52.378;9.018;2022-11-15T06:28:29;5.43;;;4.63;;
10283;SDS011;5187;52.378;9.018;2022-11-15T06:31:01;0.00;;;0.00;;
10283;SDS011;5187;52.378;9.018;2022-11-15T06:33:30;0.00;;;0.00;;
10283;SDS011;5187;52.378;9.018;2022-11-15T06:36:01;0.00;;;0.00;;
10283;SDS011;5187;52.378;9.018;2022-11-15T06:38:30;0.00;;;0.00;;
10283;SDS011;5187;52.378;9.018;2022-11-15T06:41:00;0.00;;;0.00;;
10283;SDS011;5187;52.378;9.018;2022-11-15T06:43:29;0.00;;;0.00;;
10283;SDS011;5187;52.378;9.018;2022-11-15T06:45:58;0.00;;;0.00;;
10283;SDS011;5187;52.378;9.018;2022-11-15T06:48:27;0.00;;;0.00;;
10283;SDS011;5187;52.378;9.018;2022-11-15T06:50:56;0.00;;;0.00;;
10283;SDS011;5187;52.378;9.018;2022-11-15T06:53:26;0.00;;;0.00;;
10283;SDS011;5187;52.378;9.018;2022-11-15T06:55:58;0.00;;;0.00;;
10283;SDS011;5187;52.378;9.018;2022-11-15T06:58:26;0.00;;;0.00;;
10283;SDS011;5187;52.378;9.018;2022-11-15T07:00:58;0.00;;;0.00;;
10283;SDS011;5187;52.378;9.018;2022-11-15T07:03:26;0.00;;;0.00;;
10283;SDS011;5187;52.378;9.018;2022-11-15T07:05:56;0.00;;;0.00;;
10283;SDS011;5187;52.378;9.018;2022-11-15T07:08:33;0.00;;;0.00;;
10283;SDS011;5187;52.378;9.018;2022-11-15T07:11:02;0.00;;;0.00;;
10283;SDS011;5187;52.378;9.018;2022-11-15T07:13:31;0.00;;;0.00;;
10283;SDS011;5187;52.378;9.018;2022-11-15T07:16:01;0.00;;;0.00;;
10283;SDS011;5187;52.378;9.018;2022-11-15T07:18:30;0.00;;;0.00;;
10283;SDS011;5187;52.378;9.018;2022-11-15T07:21:00;0.00;;;0.00;;
10283;SDS011;5187;52.378;9.018;2022-11-15T07:23:28;0.00;;;0.00;;
10283;SDS011;5187;52.378;9.018;2022-11-15T07:25:59;0.00;;;0.00;;
10283;SDS011;5187;52.378;9.018;2022-11-15T07:28:28;0.00;;;0.00;;
10283;SDS011;5187;52.378;9.018;2022-11-15T07:30:56;0.00;;;0.00;;
10283;SDS011;5187;52.378;9.018;2022-11-15T07:33:25;0.00;;;0.00;;
10283;SDS011;5187;52.378;9.018;2022-11-15T07:35:57;0.00;;;0.00;;
10283;SDS011;5187;52.378;9.018;2022-11-15T07:38:27;0.00;;;0.00;;
10283;SDS011;5187;52.378;9.018;2022-11-15T07:40:56;0.00;;;0.00;;
10283;SDS011;5187;52.378;9.018;2022-11-15T07:43:26;0.00;;;0.00;;
10283;SDS011;5187;52.378;9.018;2022-11-15T07:45:56;0.00;;;0.00;;
10283;SDS011;5187;52.378;9.018;2022-11-15T07:48:25;0.00;;;0.00;;
10283;SDS011;5187;52.378;9.018;2022-11-15T07:51:10;0.00;;;0.00;;
10283;SDS011;5187;52.378;9.018;2022-11-15T07:53:40;0.00;;;0.00;;
10283;SDS011;5187;52.378;9.018;2022-11-15T07:56:08;0.00;;;0.00;;
10283;SDS011;5187;52.378;9.018;2022-11-15T07:58:38;0.00;;;0.00;;
10283;SDS011;5187;52.378;9.018;2022-11-15T08:01:07;0.00;;;0.00;;
10283;SDS011;5187;52.378;9.018;2022-11-15T08:03:36;0.00;;;0.00;;
10283;SDS011;5187;52.378;9.018;2022-11-15T08:06:05;0.00;;;0.00;;
10283;SDS011;5187;52.378;9.018;2022-11-15T08:08:33;0.00;;;0.00;;
10283;SDS011;5187;52.378;9.018;2022-11-15T08:11:02;0.00;;;0.00;;
10283;SDS011;5187;52.378;9.018;2022-11-15T08:13:30;0.00;;;0.00;;
10283;SDS011;5187;52.378;9.018;2022-11-15T08:16:01;0.00;;;0.00;;
10283;SDS011;5187;52.378;9.018;2022-11-15T08:18:31;0.00;;;0.00;;
10283;SDS011;5187;52.378;9.018;2022-11-15T08:21:00;0.00;;;0.00;;
10283;SDS011;5187;52.378;9.018;2022-11-15T08:23:29;0.00;;;0.00;;
10283;SDS011;5187;52.378;9.018;2022-11-15T08:25:59;0.00;;;0.00;;
10283;SDS011;5187;52.378;9.018;2022-11-15T08:28:28;0.00;;;0.00;;
10283;SDS011;5187;52.378;9.018;2022-11-15T08:30:57;0.00;;;0.00;;
10283;SDS011;5187;52.378;9.018;2022-11-15T08:33:27;0.00;;;0.00;;
10283;SDS011;5187;52.378;9.018;2022-11-15T08:35:56;0.00;;;0.00;;
10283;SDS011;5187;52.378;9.018;2022-11-15T08:38:24;0.00;;;0.00;;
10283;SDS011;5187;52.378;9.018;2022-11-15T08:40:59;0.00;;;0.00;;
10283;SDS011;5187;52.378;9.018;2022-11-15T08:43:28;0.00;;;0.00;;
10283;SDS011;5187;52.378;9.018;2022-11-15T08:45:57;0.00;;;0.00;;
10283;SDS011;5187;52.378;9.018;2022-11-15T08:48:27;0.00;;;0.00;;
10283;SDS011;5187;52.378;9.018;2022-11-15T08:50:56;0.00;;;0.00;;
10283;SDS011;5187;52.378;9.018;2022-11-15T08:53:24;0.00;;;0.00;;
10283;SDS011;5187;52.378;9.018;2022-11-15T08:55:53;0.00;;;0.00;;
10283;SDS011;5187;52.378;9.018;2022-11-15T08:58:22;0.00;;;0.00;;
10283;SDS011;5187;52.378;9.018;2022-11-15T09:00:50;0.00;;;0.00;;
10283;SDS011;5187;52.378;9.018;2022-11-15T09:03:19;0.00;;;0.00;;
10283;SDS011;5187;52.378;9.018;2022-11-15T09:05:48;0.00;;;0.00;;
10283;SDS011;5187;52.378;9.018;2022-11-15T09:08:21;0.00;;;0.00;;
10283;SDS011;5187;52.378;9.018;2022-11-15T09:11:10;0.00;;;0.00;;
10283;SDS011;5187;52.378;9.018;2022-11-15T09:13:39;0.00;;;0.00;;
10283;SDS011;5187;52.378;9.018;2022-11-15T09:16:07;0.00;;;0.00;;
10283;SDS011;5187;52.378;9.018;2022-11-15T09:18:38;0.00;;;0.00;;
10283;SDS011;5187;52.378;9.018;2022-11-15T09:21:08;0.00;;;0.00;;
10283;SDS011;5187;52.378;9.018;2022-11-15T09:23:36;0.00;;;0.00;;
10283;SDS011;5187;52.378;9.018;2022-11-15T09:26:06;0.00;;;0.00;;
10283;SDS011;5187;52.378;9.018;2022-11-15T09:28:35;0.00;;;0.00;;
10283;SDS011;5187;52.378;9.018;2022-11-15T09:31:05;0.00;;;0.00;;
10283;SDS011;5187;52.378;9.018;2022-11-15T09:33:34;0.00;;;0.00;;
10283;SDS011;5187;52.378;9.018;2022-11-15T09:36:03;0.00;;;0.00;;
10283;SDS011;5187;52.378;9.018;2022-11-15T09:38:33;0.00;;;0.00;;
10283;SDS011;5187;52.378;9.018;2022-11-15T09:44:09;0.00;;;0.00;;
10283;SDS011;5187;52.378;9.018;2022-11-15T09:49:33;0.00;;;0.00;;
10283;SDS011;5187;52.378;9.018;2022-11-15T09:52:01;0.00;;;0.00;;
10283;SDS011;5187;52.378;9.018;2022-11-15T09:54:32;0.00;;;0.00;;
10283;SDS011;5187;52.378;9.018;2022-11-15T09:57:21;0.00;;;0.00;;
10283;SDS011;5187;52.378;9.018;2022-11-15T09:59:55;0.00;;;0.00;;
10283;SDS011;5187;52.378;9.018;2022-11-15T10:02:42;0.00;;;0.00;;
10283;SDS011;5187;52.378;9.018;2022-11-15T10:05:16;0.00;;;0.00;;
10283;SDS011;5187;52.378;9.018;2022-11-15T10:07:46;0.00;;;0.00;;
10283;SDS011;5187;52.378;9.018;2022-11-15T10:10:20;0.00;;;0.00;;
10283;SDS011;5187;52.378;9.018;2022-11-15T10:12:50;0.00;;;0.00;;
10283;SDS011;5187;52.378;9.018;2022-11-15T10:15:20;0.00;;;0.00;;
10283;SDS011;5187;52.378;9.018;2022-11-15T10:18:02;0.00;;;0.00;;
10283;SDS011;5187;52.378;9.018;2022-11-15T10:20:34;0.00;;;0.00;;
10283;SDS011;5187;52.378;9.018;2022-11-15T10:23:06;0.00;;;0.00;;
10283;SDS011;5187;52.378;9.018;2022-11-15T10:25:39;0.00;;;0.00;;
10283;SDS011;5187;52.378;9.018;2022-11-15T10:28:11;0.00;;;0.00;;
10283;SDS011;5187;52.378;9.018;2022-11-15T10:30:42;0.00;;;0.00;;
10283;SDS011;5187;52.378;9.018;2022-11-15T10:33:12;0.00;;;0.00;;
10283;SDS011;5187;52.378;9.018;2022-11-15T10:35:42;0.00;;;0.00;;
10283;SDS011;5187;52.378;9.018;2022-11-15T10:38:11;0.00;;;0.00;;
10283;SDS011;5187;52.378;9.018;2022-11-15T10:40:41;0.00;;;0.00;;
10283;SDS011;5187;52.378;9.018;2022-11-15T10:43:13;0.00;;;0.00;;
10283;SDS011;5187;52.378;9.018;2022-11-15T10:45:42;0.00;;;0.00;;
10283;SDS011;5187;52.378;9.018;2022-11-15T10:48:21;0.00;;;0.00;;
10283;SDS011;5187;52.378;9.018;2022-11-15T10:50:50;0.00;;;0.00;;
10283;SDS011;5187;52.378;9.018;2022-11-15T10:53:21;0.00;;;0.00;;
10283;SDS011;5187;52.378;9.018;2022-11-15T10:55:53;0.00;;;0.00;;
10283;SDS011;5187;52.378;9.018;2022-11-15T10:58:26;0.00;;;0.00;;
10283;SDS011;5187;52.378;9.018;2022-11-15T11:01:02;0.00;;;0.00;;
10283;SDS011;5187;52.378;9.018;2022-11-15T11:03:37;0.00;;;0.00;;
10283;SDS011;5187;52.378;9.018;2022-11-15T11:06:07;0.00;;;0.00;;
10283;SDS011;5187;52.378;9.018;2022-11-15T11:08:36;0.00;;;0.00;;
10283;SDS011;5187;52.378;9.018;2022-11-15T11:11:06;0.00;;;0.00;;
10283;SDS011;5187;52.378;9.018;2022-11-15T11:13:36;0.00;;;0.00;;
10283;SDS011;5187;52.378;9.018;2022-11-15T11:16:14;0.00;;;0.00;;
10283;SDS011;5187;52.378;9.018;2022-11-15T11:18:45;0.00;;;0.00;;
10283;SDS011;5187;52.378;9.018;2022-11-15T11:21:17;0.00;;;0.00;;
10283;SDS011;5187;52.378;9.018;2022-11-15T11:23:57;0.00;;;0.00;;
10283;SDS011;5187;52.378;9.018;2022-11-15T11:26:35;0.00;;;0.00;;
10283;SDS011;5187;52.378;9.018;2022-11-15T11:29:08;0.00;;;0.00;;
10283;SDS011;5187;52.378;9.018;2022-11-15T11:31:41;0.00;;;0.00;;
10283;SDS011;5187;52.378;9.018;2022-11-15T11:34:15;0.00;;;0.00;;
10283;SDS011;5187;52.378;9.018;2022-11-15T11:36:48;0.00;;;0.00;;
10283;SDS011;5187;52.378;9.018;2022-11-15T11:39:20;0.00;;;0.00;;
10283;SDS011;5187;52.378;9.018;2022-11-15T11:41:55;0.00;;;0.00;;
10283;SDS011;5187;52.378;9.018;2022-11-15T11:44:28;0.00;;;0.00;;
10283;SDS011;5187;52.378;9.018;2022-11-15T11:46:59;0.00;;;0.00;;
10283;SDS011;5187;52.378;9.018;2022-11-15T11:49:29;0.00;;;0.00;;
10283;SDS011;5187;52.378;9.018;2022-11-15T11:52:00;0.00;;;0.00;;
10283;SDS011;5187;52.378;9.018;2022-11-15T11:54:31;0.00;;;0.00;;
10283;SDS011;5187;52.378;9.018;2022-11-15T11:57:04;0.00;;;0.00;;
10283;SDS011;5187;52.378;9.018;2022-11-15T11:59:36;0.00;;;0.00;;
10283;SDS011;5187;52.378;9.018;2022-11-15T12:02:09;0.00;;;0.00;;
10283;SDS011;5187;52.378;9.018;2022-11-15T12:04:40;0.00;;;0.00;;
10283;SDS011;5187;52.378;9.018;2022-11-15T12:07:11;0.00;;;0.00;;
10283;SDS011;5187;52.378;9.018;2022-11-15T12:09:43;0.00;;;0.00;;
10283;SDS011;5187;52.378;9.018;2022-11-15T12:12:15;0.00;;;0.00;;
10283;SDS011;5187;52.378;9.018;2022-11-15T12:14:45;0.00;;;0.00;;
10283;SDS011;5187;52.378;9.018;2022-11-15T12:17:16;0.00;;;0.00;;
10283;SDS011;5187;52.378;9.018;2022-11-15T12:19:46;0.00;;;0.00;;
10283;SDS011;5187;52.378;9.018;2022-11-15T12:22:16;0.00;;;0.00;;
10283;SDS011;5187;52.378;9.018;2022-11-15T12:24:48;0.00;;;0.00;;
10283;SDS011;5187;52.378;9.018;2022-11-15T12:27:21;0.00;;;0.00;;
10283;SDS011;5187;52.378;9.018;2022-11-15T12:29:54;0.00;;;0.00;;
10283;SDS011;5187;52.378;9.018;2022-11-15T12:32:26;0.00;;;0.00;;
10283;SDS011;5187;52.378;9.018;2022-11-15T12:34:55;0.00;;;0.00;;
10283;SDS011;5187;52.378;9.018;2022-11-15T12:40:29;0.00;;;0.00;;
10283;SDS011;5187;52.378;9.018;2022-11-15T12:43:00;0.00;;;0.00;;
10283;SDS011;5187;52.378;9.018;2022-11-15T12:45:30;0.00;;;0.00;;
10283;SDS011;5187;52.378;9.018;2022-11-15T12:50:55;0.00;;;0.00;;
10283;SDS011;5187;52.378;9.018;2022-11-15T12:53:28;0.00;;;0.00;;
10283;SDS011;5187;52.378;9.018;2022-11-15T12:56:08;0.00;;;0.00;;
10283;SDS011;5187;52.378;9.018;2022-11-15T12:58:42;0.00;;;0.00;;
10283;SDS011;5187;52.378;9.018;2022-11-15T13:04:07;0.00;;;0.00;;
10283;SDS011;5187;52.378;9.018;2022-11-15T13:06:40;0.00;;;0.00;;
10283;SDS011;5187;52.378;9.018;2022-11-15T13:11:56;0.00;;;0.00;;
10283;SDS011;5187;52.378;9.018;2022-11-15T13:22:53;0.00;;;0.00;;
10283;SDS011;5187;52.378;9.018;2022-11-15T13:28:18;0.00;;;0.00;;
10283;SDS011;5187;52.378;9.018;2022-11-15T13:30:49;0.00;;;0.00;;
10283;SDS011;5187;52.378;9.018;2022-11-15T13:33:20;0.00;;;0.00;;
10283;SDS011;5187;52.378;9.018;2022-11-15T13:35:50;0.00;;;0.00;;
10283;SDS011;5187;52.378;9.018;2022-11-15T13:38:25;0.00;;;0.00;;
10283;SDS011;5187;52.378;9.018;2022-11-15T13:40:54;0.00;;;0.00;;
10283;SDS011;5187;52.378;9.018;2022-11-15T13:43:26;0.00;;;0.00;;
10283;SDS011;5187;52.378;9.018;2022-11-15T13:46:11;0.00;;;0.00;;
10283;SDS011;5187;52.378;9.018;2022-11-15T13:48:40;0.00;;;0.00;;
10283;SDS011;5187;52.378;9.018;2022-11-15T13:51:14;0.00;;;0.00;;
10283;SDS011;5187;52.378;9.018;2022-11-15T13:53:46;0.00;;;0.00;;
10283;SDS011;5187;52.378;9.018;2022-11-15T13:56:16;0.00;;;0.00;;
10283;SDS011;5187;52.378;9.018;2022-11-15T13:58:45;0.00;;;0.00;;
10283;SDS011;5187;52.378;9.018;2022-11-15T14:01:14;0.00;;;0.00;;
10283;SDS011;5187;52.378;9.018;2022-11-15T14:03:46;0.00;;;0.00;;
10283;SDS011;5187;52.378;9.018;2022-11-15T14:06:16;0.00;;;0.00;;
10283;SDS011;5187;52.378;9.018;2022-11-15T14:11:31;0.00;;;0.00;;
10283;SDS011;5187;52.378;9.018;2022-11-15T14:14:08;0.00;;;0.00;;
10283;SDS011;5187;52.378;9.018;2022-11-15T14:16:40;0.00;;;0.00;;
10283;SDS011;5187;52.378;9.018;2022-11-15T14:19:09;0.00;;;0.00;;
10283;SDS011;5187;52.378;9.018;2022-11-15T14:24:21;0.00;;;0.00;;
10283;SDS011;5187;52.378;9.018;2022-11-15T14:26:52;0.00;;;0.00;;
10283;SDS011;5187;52.378;9.018;2022-11-15T14:29:22;0.00;;;0.00;;
10283;SDS011;5187;52.378;9.018;2022-11-15T14:31:50;0.00;;;0.00;;
10283;SDS011;5187;52.378;9.018;2022-11-15T14:34:19;0.00;;;0.00;;
10283;SDS011;5187;52.378;9.018;2022-11-15T14:36:48;0.00;;;0.00;;
10283;SDS011;5187;52.378;9.018;2022-11-15T14:39:17;0.00;;;0.00;;
10283;SDS011;5187;52.378;9.018;2022-11-15T14:41:45;0.00;;;0.00;;
10283;SDS011;5187;52.378;9.018;2022-11-15T14:44:15;0.00;;;0.00;;
10283;SDS011;5187;52.378;9.018;2022-11-15T14:46:46;0.00;;;0.00;;
10283;SDS011;5187;52.378;9.018;2022-11-15T14:49:15;0.00;;;0.00;;
10283;SDS011;5187;52.378;9.018;2022-11-15T14:51:43;0.00;;;0.00;;
10283;SDS011;5187;52.378;9.018;2022-11-15T14:54:12;0.00;;;0.00;;
10283;SDS011;5187;52.378;9.018;2022-11-15T14:56:40;0.00;;;0.00;;
10283;SDS011;5187;52.378;9.018;2022-11-15T14:59:09;0.00;;;0.00;;
10283;SDS011;5187;52.378;9.018;2022-11-15T15:01:38;0.00;;;0.00;;
10283;SDS011;5187;52.378;9.018;2022-11-15T15:04:08;0.00;;;0.00;;
10283;SDS011;5187;52.378;9.018;2022-11-15T15:06:36;0.00;;;0.00;;
10283;SDS011;5187;52.378;9.018;2022-11-15T15:09:05;0.00;;;0.00;;
10283;SDS011;5187;52.378;9.018;2022-11-15T15:11:33;0.00;;;0.00;;
10283;SDS011;5187;52.378;9.018;2022-11-15T15:14:02;0.00;;;0.00;;
10283;SDS011;5187;52.378;9.018;2022-11-15T15:16:31;0.00;;;0.00;;
10283;SDS011;5187;52.378;9.018;2022-11-15T15:19:00;0.00;;;0.00;;
10283;SDS011;5187;52.378;9.018;2022-11-15T15:21:29;0.00;;;0.00;;
10283;SDS011;5187;52.378;9.018;2022-11-15T15:24:03;0.00;;;0.00;;
10283;SDS011;5187;52.378;9.018;2022-11-15T15:26:31;0.00;;;0.00;;
10283;SDS011;5187;52.378;9.018;2022-11-15T15:29:02;0.00;;;0.00;;
10283;SDS011;5187;52.378;9.018;2022-11-15T15:31:31;0.00;;;0.00;;
10283;SDS011;5187;52.378;9.018;2022-11-15T15:34:01;0.00;;;0.00;;
10283;SDS011;5187;52.378;9.018;2022-11-15T15:36:30;0.00;;;0.00;;
10283;SDS011;5187;52.378;9.018;2022-11-15T15:38:59;0.00;;;0.00;;
10283;SDS011;5187;52.378;9.018;2022-11-15T15:41:29;0.00;;;0.00;;
10283;SDS011;5187;52.378;9.018;2022-11-15T15:43:57;0.00;;;0.00;;
10283;SDS011;5187;52.378;9.018;2022-11-15T15:46:26;0.00;;;0.00;;
10283;SDS011;5187;52.378;9.018;2022-11-15T15:48:54;0.00;;;0.00;;
10283;SDS011;5187;52.378;9.018;2022-11-15T15:51:24;0.00;;;0.00;;
10283;SDS011;5187;52.378;9.018;2022-11-15T15:53:53;0.00;;;0.00;;
10283;SDS011;5187;52.378;9.018;2022-11-15T15:56:23;0.00;;;0.00;;
10283;SDS011;5187;52.378;9.018;2022-11-15T15:58:52;0.00;;;0.00;;